sensor_id;sensor_type;location;lat;lon;timestamp;pressure;altitude;pressure_sealevel;temperature;humidity
19259;BME280;9763;48.780;9.212;2022-07-23T00:01:00;98325.78;;;29.82;nan
19259;BME280;9763;48.780;9.212;2022-07-23T00:04:24;98285.69;;;29.74;nan
19259;BME280;9763;48.780;9.212;2022-07-23T00:07:48;98282.50;;;29.65;nan
19259;BME280;9763;48.780;9.212;2022-07-23T00:11:12;98293.09;;;29.60;nan
19259;BME280;9763;48.780;9.212;2022-07-23T00:14:38;98285.13;;;29.54;nan
19259;BME280;9763;48.780;9.212;2022-07-23T00:18:02;98282.25;;;29.49;nan
19259;BME280;9763;48.780;9.212;2022-07-23T00:21:26;98281.53;;;29.42;nan
19259;BME280;9763;48.780;9.212;2022-07-23T00:24:50;98285.06;;;29.35;nan
19259;BME280;9763;48.780;9.212;2022-07-23T00:28:34;98270.44;;;29.31;nan
19259;BME280;9763;48.780;9.212;2022-07-23T00:31:59;98290.13;;;29.25;nan
19259;BME280;9763;48.780;9.212;2022-07-23T00:35:24;98272.44;;;29.18;nan
19259;BME280;9763;48.780;9.212;2022-07-23T00:38:47;98269.78;;;29.11;nan
19259;BME280;9763;48.780;9.212;2022-07-23T00:42:11;98266.97;;;28.81;nan
19259;BME280;9763;48.780;9.212;2022-07-23T00:45:35;98267.81;;;28.19;nan
19259;BME280;9763;48.780;9.212;2022-07-23T00:49:00;98258.16;;;27.60;nan
19259;BME280;9763;48.780;9.212;2022-07-23T00:52:24;98230.19;;;27.10;nan
19259;BME280;9763;48.780;9.212;2022-07-23T00:55:48;98241.34;;;26.80;nan
19259;BME280;9763;48.780;9.212;2022-07-23T00:59:12;98242.38;;;26.60;nan
19259;BME280;9763;48.780;9.212;2022-07-23T01:02:37;98253.69;;;26.48;nan
19259;BME280;9763;48.780;9.212;2022-07-23T01:06:02;98273.28;;;26.42;nan
19259;BME280;9763;48.780;9.212;2022-07-23T01:09:27;98254.50;;;26.36;nan
19259;BME280;9763;48.780;9.212;2022-07-23T01:12:51;98258.22;;;26.35;nan
19259;BME280;9763;48.780;9.212;2022-07-23T01:16:15;98263.97;;;26.38;nan
19259;BME280;9763;48.780;9.212;2022-07-23T01:19:39;98243.63;;;26.50;nan
19259;BME280;9763;48.780;9.212;2022-07-23T01:23:03;98224.03;;;26.70;nan
19259;BME280;9763;48.780;9.212;2022-07-23T01:26:28;98238.69;;;27.00;nan
19259;BME280;9763;48.780;9.212;2022-07-23T01:29:52;98243.38;;;27.24;nan
19259;BME280;9763;48.780;9.212;2022-07-23T01:33:18;98240.63;;;27.44;nan
19259;BME280;9763;48.780;9.212;2022-07-23T01:36:41;98218.94;;;27.59;nan
19259;BME280;9763;48.780;9.212;2022-07-23T01:40:08;98207.53;;;27.70;nan
19259;BME280;9763;48.780;9.212;2022-07-23T01:43:32;98198.00;;;27.81;nan
19259;BME280;9763;48.780;9.212;2022-07-23T01:46:56;98232.41;;;27.90;nan
19259;BME280;9763;48.780;9.212;2022-07-23T01:50:20;98218.41;;;27.88;nan
19259;BME280;9763;48.780;9.212;2022-07-23T01:54:04;98229.38;;;27.80;nan
19259;BME280;9763;48.780;9.212;2022-07-23T01:57:29;98212.91;;;27.77;nan
19259;BME280;9763;48.780;9.212;2022-07-23T02:04:52;98248.59;;;27.71;nan
19259;BME280;9763;48.780;9.212;2022-07-23T02:08:20;98260.59;;;27.68;nan
19259;BME280;9763;48.780;9.212;2022-07-23T02:11:44;98254.59;;;27.66;nan
19259;BME280;9763;48.780;9.212;2022-07-23T02:15:09;98245.97;;;27.64;nan
19259;BME280;9763;48.780;9.212;2022-07-23T02:18:35;98256.25;;;27.67;nan
19259;BME280;9763;48.780;9.212;2022-07-23T02:21:58;98266.56;;;27.70;nan
19259;BME280;9763;48.780;9.212;2022-07-23T02:25:22;98280.81;;;27.71;nan
19259;BME280;9763;48.780;9.212;2022-07-23T02:28:51;98294.84;;;27.66;nan
19259;BME280;9763;48.780;9.212;2022-07-23T02:32:16;98293.41;;;27.64;nan
19259;BME280;9763;48.780;9.212;2022-07-23T02:35:40;98297.97;;;27.63;nan
19259;BME280;9763;48.780;9.212;2022-07-23T02:39:04;98311.38;;;27.63;nan
19259;BME280;9763;48.780;9.212;2022-07-23T02:42:29;98315.50;;;27.59;nan
19259;BME280;9763;48.780;9.212;2022-07-23T02:45:52;98322.47;;;27.53;nan
19259;BME280;9763;48.780;9.212;2022-07-23T02:49:18;98324.56;;;27.51;nan
19259;BME280;9763;48.780;9.212;2022-07-23T02:52:43;98339.63;;;27.52;nan
19259;BME280;9763;48.780;9.212;2022-07-23T02:56:07;98348.72;;;27.51;nan
19259;BME280;9763;48.780;9.212;2022-07-23T02:59:31;98345.63;;;27.48;nan
19259;BME280;9763;48.780;9.212;2022-07-23T03:02:56;98341.50;;;27.45;nan
19259;BME280;9763;48.780;9.212;2022-07-23T03:06:21;98335.13;;;27.40;nan
19259;BME280;9763;48.780;9.212;2022-07-23T03:09:45;98342.53;;;27.38;nan
19259;BME280;9763;48.780;9.212;2022-07-23T03:13:08;98340.28;;;27.35;nan
19259;BME280;9763;48.780;9.212;2022-07-23T03:16:32;98358.44;;;27.39;nan
19259;BME280;9763;48.780;9.212;2022-07-23T03:19:56;98360.91;;;27.41;nan
19259;BME280;9763;48.780;9.212;2022-07-23T03:23:20;98360.06;;;27.40;nan
19259;BME280;9763;48.780;9.212;2022-07-23T03:26:44;98349.34;;;27.40;nan
19259;BME280;9763;48.780;9.212;2022-07-23T03:30:09;98341.31;;;27.40;nan
19259;BME280;9763;48.780;9.212;2022-07-23T03:33:33;98333.84;;;27.42;nan
19259;BME280;9763;48.780;9.212;2022-07-23T03:36:56;98338.81;;;27.45;nan
19259;BME280;9763;48.780;9.212;2022-07-23T03:40:24;98332.00;;;27.49;nan
19259;BME280;9763;48.780;9.212;2022-07-23T03:43:48;98337.78;;;27.53;nan
19259;BME280;9763;48.780;9.212;2022-07-23T03:47:11;98331.34;;;27.54;nan
19259;BME280;9763;48.780;9.212;2022-07-23T03:50:35;98336.34;;;27.50;nan
19259;BME280;9763;48.780;9.212;2022-07-23T03:53:59;98338.59;;;27.47;nan
19259;BME280;9763;48.780;9.212;2022-07-23T03:57:24;98336.78;;;27.41;nan
19259;BME280;9763;48.780;9.212;2022-07-23T04:00:48;98337.38;;;27.36;nan
19259;BME280;9763;48.780;9.212;2022-07-23T04:04:11;98348.72;;;27.32;nan
19259;BME280;9763;48.780;9.212;2022-07-23T04:07:36;98349.75;;;27.31;nan
19259;BME280;9763;48.780;9.212;2022-07-23T04:11:00;98350.16;;;27.34;nan
19259;BME280;9763;48.780;9.212;2022-07-23T04:14:26;98348.28;;;27.41;nan
19259;BME280;9763;48.780;9.212;2022-07-23T04:17:49;98348.28;;;27.48;nan
19259;BME280;9763;48.780;9.212;2022-07-23T04:21:14;98342.91;;;27.54;nan
19259;BME280;9763;48.780;9.212;2022-07-23T04:24:39;98343.56;;;27.63;nan
19259;BME280;9763;48.780;9.212;2022-07-23T04:28:04;98347.66;;;27.72;nan
19259;BME280;9763;48.780;9.212;2022-07-23T04:31:29;98351.34;;;27.78;nan
19259;BME280;9763;48.780;9.212;2022-07-23T04:34:58;98354.84;;;27.85;nan
19259;BME280;9763;48.780;9.212;2022-07-23T04:38:22;98357.06;;;27.94;nan
19259;BME280;9763;48.780;9.212;2022-07-23T04:41:50;98363.47;;;28.00;nan
19259;BME280;9763;48.780;9.212;2022-07-23T04:45:14;98352.69;;;28.07;nan
19259;BME280;9763;48.780;9.212;2022-07-23T04:48:40;98349.81;;;28.08;nan
19259;BME280;9763;48.780;9.212;2022-07-23T04:52:05;98357.25;;;28.06;nan
19259;BME280;9763;48.780;9.212;2022-07-23T04:55:29;98355.38;;;28.13;nan
19259;BME280;9763;48.780;9.212;2022-07-23T04:58:53;98357.84;;;28.21;nan
19259;BME280;9763;48.780;9.212;2022-07-23T05:02:17;98356.53;;;28.30;nan
19259;BME280;9763;48.780;9.212;2022-07-23T05:05:42;98358.94;;;28.45;nan
19259;BME280;9763;48.780;9.212;2022-07-23T05:09:10;98360.31;;;28.61;nan
19259;BME280;9763;48.780;9.212;2022-07-23T05:12:35;98358.13;;;28.83;nan
19259;BME280;9763;48.780;9.212;2022-07-23T05:16:00;98358.47;;;29.18;nan
19259;BME280;9763;48.780;9.212;2022-07-23T05:19:23;98370.31;;;29.35;nan
19259;BME280;9763;48.780;9.212;2022-07-23T05:22:49;98361.00;;;29.37;nan
19259;BME280;9763;48.780;9.212;2022-07-23T05:26:13;98355.25;;;29.34;nan
19259;BME280;9763;48.780;9.212;2022-07-23T05:29:37;98362.00;;;29.36;nan
19259;BME280;9763;48.780;9.212;2022-07-23T05:33:01;98364.84;;;29.48;nan
19259;BME280;9763;48.780;9.212;2022-07-23T05:36:25;98365.25;;;29.88;nan
19259;BME280;9763;48.780;9.212;2022-07-23T05:39:52;98383.44;;;30.29;nan
19259;BME280;9763;48.780;9.212;2022-07-23T05:43:16;98375.31;;;30.48;nan
19259;BME280;9763;48.780;9.212;2022-07-23T05:46:39;98384.81;;;30.50;nan
19259;BME280;9763;48.780;9.212;2022-07-23T05:50:07;98390.28;;;30.43;nan
19259;BME280;9763;48.780;9.212;2022-07-23T05:53:41;98399.50;;;30.36;nan
19259;BME280;9763;48.780;9.212;2022-07-23T05:57:11;98405.00;;;30.29;nan
19259;BME280;9763;48.780;9.212;2022-07-23T06:00:35;98406.47;;;30.25;nan
19259;BME280;9763;48.780;9.212;2022-07-23T06:03:59;98403.94;;;30.12;nan
19259;BME280;9763;48.780;9.212;2022-07-23T06:07:29;98410.53;;;29.98;nan
19259;BME280;9763;48.780;9.212;2022-07-23T06:10:53;98420.34;;;29.86;nan
19259;BME280;9763;48.780;9.212;2022-07-23T06:14:19;98410.53;;;29.73;nan
19259;BME280;9763;48.780;9.212;2022-07-23T06:17:47;98395.13;;;29.62;nan
19259;BME280;9763;48.780;9.212;2022-07-23T06:21:11;98390.34;;;29.64;nan
19259;BME280;9763;48.780;9.212;2022-07-23T06:24:54;98388.66;;;29.88;nan
19259;BME280;9763;48.780;9.212;2022-07-23T06:28:18;98398.72;;;30.17;nan
19259;BME280;9763;48.780;9.212;2022-07-23T06:31:43;98398.69;;;30.35;nan
19259;BME280;9763;48.780;9.212;2022-07-23T06:35:09;98407.72;;;30.59;nan
19259;BME280;9763;48.780;9.212;2022-07-23T06:38:33;98415.69;;;31.14;nan
19259;BME280;9763;48.780;9.212;2022-07-23T06:41:57;98413.13;;;31.54;nan
19259;BME280;9763;48.780;9.212;2022-07-23T06:45:32;98423.00;;;31.60;nan
19259;BME280;9763;48.780;9.212;2022-07-23T06:48:57;98423.84;;;31.61;nan
19259;BME280;9763;48.780;9.212;2022-07-23T06:52:24;98428.91;;;31.69;nan
19259;BME280;9763;48.780;9.212;2022-07-23T06:55:48;98433.22;;;31.58;nan
19259;BME280;9763;48.780;9.212;2022-07-23T06:59:11;98449.16;;;31.36;nan
19259;BME280;9763;48.780;9.212;2022-07-23T07:02:35;98452.84;;;31.12;nan
19259;BME280;9763;48.780;9.212;2022-07-23T07:06:01;98458.84;;;30.96;nan
19259;BME280;9763;48.780;9.212;2022-07-23T07:09:25;98476.50;;;30.80;nan
19259;BME280;9763;48.780;9.212;2022-07-23T07:12:49;98488.25;;;30.67;nan
19259;BME280;9763;48.780;9.212;2022-07-23T07:16:13;98481.19;;;30.55;nan
19259;BME280;9763;48.780;9.212;2022-07-23T07:19:37;98464.94;;;30.43;nan
19259;BME280;9763;48.780;9.212;2022-07-23T07:23:02;98457.28;;;30.22;nan
19259;BME280;9763;48.780;9.212;2022-07-23T07:26:26;98449.44;;;29.95;nan
19259;BME280;9763;48.780;9.212;2022-07-23T07:29:49;98444.28;;;29.76;nan
19259;BME280;9763;48.780;9.212;2022-07-23T07:33:13;98460.97;;;29.59;nan
19259;BME280;9763;48.780;9.212;2022-07-23T07:36:37;98471.88;;;29.46;nan
19259;BME280;9763;48.780;9.212;2022-07-23T07:40:03;98463.00;;;29.39;nan
19259;BME280;9763;48.780;9.212;2022-07-23T07:43:27;98482.69;;;29.33;nan
19259;BME280;9763;48.780;9.212;2022-07-23T07:46:51;98493.59;;;29.45;nan
19259;BME280;9763;48.780;9.212;2022-07-23T07:50:15;98491.91;;;30.00;nan
19259;BME280;9763;48.780;9.212;2022-07-23T07:53:39;98503.69;;;30.78;nan
19259;BME280;9763;48.780;9.212;2022-07-23T07:57:04;98504.28;;;32.05;nan
19259;BME280;9763;48.780;9.212;2022-07-23T08:00:30;98522.59;;;32.03;nan
19259;BME280;9763;48.780;9.212;2022-07-23T08:03:54;98525.88;;;31.70;nan
19259;BME280;9763;48.780;9.212;2022-07-23T08:07:18;98530.69;;;32.15;nan
19259;BME280;9763;48.780;9.212;2022-07-23T08:10:42;98532.72;;;33.35;nan
19259;BME280;9763;48.780;9.212;2022-07-23T08:14:07;98533.56;;;33.52;nan
19259;BME280;9763;48.780;9.212;2022-07-23T08:17:31;98527.91;;;33.53;nan
19259;BME280;9763;48.780;9.212;2022-07-23T08:20:55;98532.03;;;34.61;nan
19259;BME280;9763;48.780;9.212;2022-07-23T08:24:18;98525.59;;;35.11;nan
19259;BME280;9763;48.780;9.212;2022-07-23T08:27:42;98517.63;;;34.78;nan
19259;BME280;9763;48.780;9.212;2022-07-23T08:31:07;98502.94;;;34.18;nan
19259;BME280;9763;48.780;9.212;2022-07-23T08:34:33;98503.78;;;33.52;nan
19259;BME280;9763;48.780;9.212;2022-07-23T08:38:02;98500.53;;;32.93;nan
19259;BME280;9763;48.780;9.212;2022-07-23T08:41:26;98509.06;;;32.50;nan
19259;BME280;9763;48.780;9.212;2022-07-23T08:44:50;98515.50;;;32.61;nan
19259;BME280;9763;48.780;9.212;2022-07-23T08:48:17;98510.38;;;32.59;nan
19259;BME280;9763;48.780;9.212;2022-07-23T08:51:43;98505.00;;;33.16;nan
19259;BME280;9763;48.780;9.212;2022-07-23T08:55:08;98511.59;;;33.98;nan
19259;BME280;9763;48.780;9.212;2022-07-23T08:58:32;98509.50;;;35.58;nan
19259;BME280;9763;48.780;9.212;2022-07-23T09:01:56;98499.25;;;37.07;nan
19259;BME280;9763;48.780;9.212;2022-07-23T09:05:21;98499.47;;;38.52;nan
19259;BME280;9763;48.780;9.212;2022-07-23T09:08:45;98506.66;;;40.15;nan
19259;BME280;9763;48.780;9.212;2022-07-23T09:12:10;98504.03;;;41.56;nan
19259;BME280;9763;48.780;9.212;2022-07-23T09:15:48;98486.41;;;42.63;nan
19259;BME280;9763;48.780;9.212;2022-07-23T09:19:15;98491.63;;;43.28;nan
19259;BME280;9763;48.780;9.212;2022-07-23T09:22:44;98492.63;;;43.77;nan
19259;BME280;9763;48.780;9.212;2022-07-23T09:26:27;98484.59;;;44.51;nan
19259;BME280;9763;48.780;9.212;2022-07-23T09:29:56;98476.16;;;45.13;nan
19259;BME280;9763;48.780;9.212;2022-07-23T09:33:20;98472.25;;;45.40;nan
19259;BME280;9763;48.780;9.212;2022-07-23T09:36:54;98459.25;;;45.49;nan
19259;BME280;9763;48.780;9.212;2022-07-23T09:40:20;98460.41;;;45.39;nan
19259;BME280;9763;48.780;9.212;2022-07-23T09:43:44;98459.03;;;45.80;nan
19259;BME280;9763;48.780;9.212;2022-07-23T09:47:08;98464.34;;;46.40;nan
19259;BME280;9763;48.780;9.212;2022-07-23T09:50:31;98461.06;;;46.97;nan
19259;BME280;9763;48.780;9.212;2022-07-23T09:53:55;98456.81;;;47.41;nan
19259;BME280;9763;48.780;9.212;2022-07-23T09:57:20;98469.34;;;47.72;nan
19259;BME280;9763;48.780;9.212;2022-07-23T10:00:47;98467.00;;;47.82;nan
19259;BME280;9763;48.780;9.212;2022-07-23T10:04:12;98469.78;;;47.94;nan
19259;BME280;9763;48.780;9.212;2022-07-23T10:07:55;98462.44;;;48.23;nan
19259;BME280;9763;48.780;9.212;2022-07-23T10:11:38;98452.78;;;48.53;nan
19259;BME280;9763;48.780;9.212;2022-07-23T10:15:19;98465.22;;;48.59;nan
19259;BME280;9763;48.780;9.212;2022-07-23T10:18:43;98464.28;;;48.43;nan
19259;BME280;9763;48.780;9.212;2022-07-23T10:22:10;98460.81;;;48.22;nan
19259;BME280;9763;48.780;9.212;2022-07-23T10:25:42;98459.75;;;47.90;nan
19259;BME280;9763;48.780;9.212;2022-07-23T10:29:30;98473.78;;;47.85;nan
19259;BME280;9763;48.780;9.212;2022-07-23T10:33:17;98467.47;;;47.96;nan
19259;BME280;9763;48.780;9.212;2022-07-23T10:36:53;98461.03;;;48.05;nan
19259;BME280;9763;48.780;9.212;2022-07-23T10:40:21;98456.56;;;48.36;nan
19259;BME280;9763;48.780;9.212;2022-07-23T10:43:44;98454.81;;;48.32;nan
19259;BME280;9763;48.780;9.212;2022-07-23T10:47:09;98451.81;;;48.25;nan
19259;BME280;9763;48.780;9.212;2022-07-23T10:51:13;98455.53;;;48.41;nan
19259;BME280;9763;48.780;9.212;2022-07-23T10:54:37;98454.81;;;48.68;nan
19259;BME280;9763;48.780;9.212;2022-07-23T10:58:02;98443.41;;;49.10;nan
19259;BME280;9763;48.780;9.212;2022-07-23T11:01:34;98446.03;;;49.19;nan
19259;BME280;9763;48.780;9.212;2022-07-23T11:05:01;98442.41;;;49.30;nan
19259;BME280;9763;48.780;9.212;2022-07-23T11:08:28;98440.72;;;49.14;nan
19259;BME280;9763;48.780;9.212;2022-07-23T11:12:34;98448.41;;;48.80;nan
19259;BME280;9763;48.780;9.212;2022-07-23T11:16:14;98435.84;;;48.70;nan
19259;BME280;9763;48.780;9.212;2022-07-23T11:20:12;98441.06;;;48.72;nan
19259;BME280;9763;48.780;9.212;2022-07-23T11:24:03;98440.97;;;48.56;nan
19259;BME280;9763;48.780;9.212;2022-07-23T11:27:37;98437.81;;;47.85;nan
19259;BME280;9763;48.780;9.212;2022-07-23T11:31:17;98438.06;;;47.92;nan
19259;BME280;9763;48.780;9.212;2022-07-23T11:34:44;98437.00;;;47.96;nan
19259;BME280;9763;48.780;9.212;2022-07-23T11:38:14;98438.41;;;46.53;nan
19259;BME280;9763;48.780;9.212;2022-07-23T11:41:46;98443.53;;;45.41;nan
19259;BME280;9763;48.780;9.212;2022-07-23T11:45:09;98439.00;;;45.28;nan
19259;BME280;9763;48.780;9.212;2022-07-23T11:48:33;98434.59;;;44.83;nan
19259;BME280;9763;48.780;9.212;2022-07-23T11:52:04;98441.41;;;44.95;nan
19259;BME280;9763;48.780;9.212;2022-07-23T11:55:29;98437.09;;;45.83;nan
19259;BME280;9763;48.780;9.212;2022-07-23T11:58:56;98435.78;;;46.36;nan
19259;BME280;9763;48.780;9.212;2022-07-23T12:02:22;98428.91;;;46.13;nan
19259;BME280;9763;48.780;9.212;2022-07-23T12:05:47;98421.31;;;46.01;nan
19259;BME280;9763;48.780;9.212;2022-07-23T12:09:11;98423.69;;;45.56;nan
19259;BME280;9763;48.780;9.212;2022-07-23T12:12:37;98426.81;;;44.77;nan
19259;BME280;9763;48.780;9.212;2022-07-23T12:16:02;98429.88;;;43.57;nan
19259;BME280;9763;48.780;9.212;2022-07-23T12:19:27;98428.31;;;43.42;nan
19259;BME280;9763;48.780;9.212;2022-07-23T12:22:55;98420.63;;;43.30;nan
19259;BME280;9763;48.780;9.212;2022-07-23T12:26:19;98416.84;;;42.68;nan
19259;BME280;9763;48.780;9.212;2022-07-23T12:29:43;98410.66;;;42.62;nan
19259;BME280;9763;48.780;9.212;2022-07-23T12:33:11;98416.03;;;42.81;nan
19259;BME280;9763;48.780;9.212;2022-07-23T12:36:38;98418.56;;;42.78;nan
19259;BME280;9763;48.780;9.212;2022-07-23T12:40:22;98420.19;;;42.79;nan
19259;BME280;9763;48.780;9.212;2022-07-23T12:43:46;98417.84;;;42.72;nan
19259;BME280;9763;48.780;9.212;2022-07-23T12:47:10;98424.16;;;42.72;nan
19259;BME280;9763;48.780;9.212;2022-07-23T12:51:00;98418.78;;;42.54;nan
19259;BME280;9763;48.780;9.212;2022-07-23T12:54:27;98413.06;;;42.64;nan
19259;BME280;9763;48.780;9.212;2022-07-23T12:57:52;98426.19;;;42.67;nan
19259;BME280;9763;48.780;9.212;2022-07-23T13:01:25;98436.59;;;42.15;nan
19259;BME280;9763;48.780;9.212;2022-07-23T13:04:50;98422.50;;;41.29;nan
19259;BME280;9763;48.780;9.212;2022-07-23T13:08:15;98426.88;;;40.93;nan
19259;BME280;9763;48.780;9.212;2022-07-23T13:11:39;98430.44;;;40.93;nan
19259;BME280;9763;48.780;9.212;2022-07-23T13:15:04;98424.44;;;40.91;nan
19259;BME280;9763;48.780;9.212;2022-07-23T13:18:29;98425.81;;;41.08;nan
19259;BME280;9763;48.780;9.212;2022-07-23T13:21:52;98432.41;;;40.88;nan
19259;BME280;9763;48.780;9.212;2022-07-23T13:25:17;98432.19;;;41.03;nan
19259;BME280;9763;48.780;9.212;2022-07-23T13:28:41;98429.22;;;41.18;nan
19259;BME280;9763;48.780;9.212;2022-07-23T13:32:05;98437.91;;;41.25;nan
19259;BME280;9763;48.780;9.212;2022-07-23T13:35:36;98420.22;;;41.50;nan
19259;BME280;9763;48.780;9.212;2022-07-23T13:39:00;98431.19;;;41.18;nan
19259;BME280;9763;48.780;9.212;2022-07-23T13:42:27;98430.19;;;41.27;nan
19259;BME280;9763;48.780;9.212;2022-07-23T13:45:52;98424.59;;;41.51;nan
19259;BME280;9763;48.780;9.212;2022-07-23T13:49:16;98424.91;;;41.31;nan
19259;BME280;9763;48.780;9.212;2022-07-23T13:52:41;98422.34;;;41.02;nan
19259;BME280;9763;48.780;9.212;2022-07-23T13:56:05;98413.50;;;40.25;nan
19259;BME280;9763;48.780;9.212;2022-07-23T13:59:30;98414.81;;;39.17;nan
19259;BME280;9763;48.780;9.212;2022-07-23T14:02:54;98420.44;;;38.32;nan
19259;BME280;9763;48.780;9.212;2022-07-23T14:06:18;98417.34;;;37.64;nan
19259;BME280;9763;48.780;9.212;2022-07-23T14:09:54;98410.78;;;37.14;nan
19259;BME280;9763;48.780;9.212;2022-07-23T14:13:18;98422.66;;;36.73;nan
19259;BME280;9763;48.780;9.212;2022-07-23T14:16:44;98416.28;;;36.37;nan
19259;BME280;9763;48.780;9.212;2022-07-23T14:20:10;98414.59;;;36.26;nan
19259;BME280;9763;48.780;9.212;2022-07-23T14:23:34;98414.81;;;36.19;nan
19259;BME280;9763;48.780;9.212;2022-07-23T14:27:00;98411.81;;;36.16;nan
19259;BME280;9763;48.780;9.212;2022-07-23T14:30:24;98403.09;;;36.14;nan
19259;BME280;9763;48.780;9.212;2022-07-23T14:33:57;98408.53;;;36.14;nan
19259;BME280;9763;48.780;9.212;2022-07-23T14:37:21;98406.41;;;36.21;nan
19259;BME280;9763;48.780;9.212;2022-07-23T14:40:46;98409.72;;;36.23;nan
19259;BME280;9763;48.780;9.212;2022-07-23T14:44:11;98400.44;;;36.24;nan
19259;BME280;9763;48.780;9.212;2022-07-23T14:47:35;98406.06;;;36.12;nan
19259;BME280;9763;48.780;9.212;2022-07-23T14:51:03;98405.16;;;35.86;nan
19259;BME280;9763;48.780;9.212;2022-07-23T14:54:28;98395.78;;;35.72;nan
19259;BME280;9763;48.780;9.212;2022-07-23T14:57:51;98392.78;;;35.68;nan
19259;BME280;9763;48.780;9.212;2022-07-23T15:01:16;98389.75;;;35.65;nan
19259;BME280;9763;48.780;9.212;2022-07-23T15:04:40;98386.78;;;35.66;nan
19259;BME280;9763;48.780;9.212;2022-07-23T15:08:05;98390.88;;;35.69;nan
19259;BME280;9763;48.780;9.212;2022-07-23T15:11:49;98394.19;;;35.76;nan
19259;BME280;9763;48.780;9.212;2022-07-23T15:15:13;98395.63;;;35.84;nan
19259;BME280;9763;48.780;9.212;2022-07-23T15:18:37;98397.53;;;35.83;nan
19259;BME280;9763;48.780;9.212;2022-07-23T15:22:01;98393.94;;;35.78;nan
19259;BME280;9763;48.780;9.212;2022-07-23T15:25:26;98397.66;;;35.66;nan
19259;BME280;9763;48.780;9.212;2022-07-23T15:28:49;98393.75;;;35.52;nan
19259;BME280;9763;48.780;9.212;2022-07-23T15:32:13;98414.81;;;35.35;nan
19259;BME280;9763;48.780;9.212;2022-07-23T15:35:37;98408.34;;;35.14;nan
19259;BME280;9763;48.780;9.212;2022-07-23T15:39:00;98417.63;;;34.91;nan
19259;BME280;9763;48.780;9.212;2022-07-23T15:42:26;98418.53;;;34.75;nan
19259;BME280;9763;48.780;9.212;2022-07-23T15:45:52;98407.84;;;34.63;nan
19259;BME280;9763;48.780;9.212;2022-07-23T15:49:16;98411.56;;;34.57;nan
19259;BME280;9763;48.780;9.212;2022-07-23T15:52:40;98406.19;;;34.62;nan
19259;BME280;9763;48.780;9.212;2022-07-23T15:56:06;98396.75;;;34.65;nan
19259;BME280;9763;48.780;9.212;2022-07-23T15:59:38;98402.41;;;34.63;nan
19259;BME280;9763;48.780;9.212;2022-07-23T16:03:03;98393.66;;;34.56;nan
19259;BME280;9763;48.780;9.212;2022-07-23T16:06:31;98402.16;;;34.43;nan
19259;BME280;9763;48.780;9.212;2022-07-23T16:09:55;98396.06;;;34.31;nan
19259;BME280;9763;48.780;9.212;2022-07-23T16:13:19;98393.22;;;34.21;nan
19259;BME280;9763;48.780;9.212;2022-07-23T16:16:44;98394.66;;;34.07;nan
19259;BME280;9763;48.780;9.212;2022-07-23T16:20:09;98403.47;;;33.97;nan
19259;BME280;9763;48.780;9.212;2022-07-23T16:23:33;98404.88;;;33.83;nan
19259;BME280;9763;48.780;9.212;2022-07-23T16:26:56;98398.03;;;33.75;nan
19259;BME280;9763;48.780;9.212;2022-07-23T16:30:27;98405.28;;;33.75;nan
19259;BME280;9763;48.780;9.212;2022-07-23T16:33:52;98410.50;;;33.76;nan
19259;BME280;9763;48.780;9.212;2022-07-23T16:37:18;98409.19;;;33.79;nan
19259;BME280;9763;48.780;9.212;2022-07-23T16:40:41;98412.84;;;33.73;nan
19259;BME280;9763;48.780;9.212;2022-07-23T16:44:05;98418.94;;;33.63;nan
19259;BME280;9763;48.780;9.212;2022-07-23T16:47:29;98420.19;;;33.55;nan
19259;BME280;9763;48.780;9.212;2022-07-23T16:50:54;98421.41;;;33.48;nan
19259;BME280;9763;48.780;9.212;2022-07-23T16:54:22;98425.41;;;33.45;nan
19259;BME280;9763;48.780;9.212;2022-07-23T16:57:46;98434.28;;;33.41;nan
19259;BME280;9763;48.780;9.212;2022-07-23T17:01:10;98437.59;;;33.43;nan
19259;BME280;9763;48.780;9.212;2022-07-23T17:04:34;98431.66;;;33.46;nan
19259;BME280;9763;48.780;9.212;2022-07-23T17:08:01;98440.09;;;33.49;nan
19259;BME280;9763;48.780;9.212;2022-07-23T17:11:24;98439.63;;;33.52;nan
19259;BME280;9763;48.780;9.212;2022-07-23T17:14:48;98443.97;;;33.53;nan
19259;BME280;9763;48.780;9.212;2022-07-23T17:18:12;98445.28;;;33.51;nan
19259;BME280;9763;48.780;9.212;2022-07-23T17:21:35;98449.78;;;33.45;nan
19259;BME280;9763;48.780;9.212;2022-07-23T17:25:01;98449.72;;;33.40;nan
19259;BME280;9763;48.780;9.212;2022-07-23T17:28:31;98451.44;;;33.30;nan
19259;BME280;9763;48.780;9.212;2022-07-23T17:31:55;98450.97;;;33.21;nan
19259;BME280;9763;48.780;9.212;2022-07-23T17:35:19;98449.50;;;33.13;nan
19259;BME280;9763;48.780;9.212;2022-07-23T17:38:43;98454.00;;;33.08;nan
19259;BME280;9763;48.780;9.212;2022-07-23T17:42:08;98447.19;;;33.05;nan
19259;BME280;9763;48.780;9.212;2022-07-23T17:45:32;98440.38;;;33.03;nan
19259;BME280;9763;48.780;9.212;2022-07-23T17:48:55;98444.63;;;32.99;nan
19259;BME280;9763;48.780;9.212;2022-07-23T17:52:19;98451.25;;;32.91;nan
19259;BME280;9763;48.780;9.212;2022-07-23T17:55:43;98443.78;;;32.81;nan
19259;BME280;9763;48.780;9.212;2022-07-23T17:59:08;98450.84;;;32.71;nan
19259;BME280;9763;48.780;9.212;2022-07-23T18:02:32;98454.72;;;32.63;nan
19259;BME280;9763;48.780;9.212;2022-07-23T18:05:55;98454.53;;;32.53;nan
19259;BME280;9763;48.780;9.212;2022-07-23T18:09:19;98455.97;;;32.44;nan
19259;BME280;9763;48.780;9.212;2022-07-23T18:12:43;98460.94;;;32.35;nan
19259;BME280;9763;48.780;9.212;2022-07-23T18:16:08;98465.28;;;32.25;nan
19259;BME280;9763;48.780;9.212;2022-07-23T18:19:32;98469.38;;;32.15;nan
19259;BME280;9763;48.780;9.212;2022-07-23T18:22:55;98477.03;;;32.07;nan
19259;BME280;9763;48.780;9.212;2022-07-23T18:26:19;98470.34;;;31.98;nan
19259;BME280;9763;48.780;9.212;2022-07-23T18:29:43;98476.31;;;31.88;nan
19259;BME280;9763;48.780;9.212;2022-07-23T18:33:08;98475.25;;;31.77;nan
19259;BME280;9763;48.780;9.212;2022-07-23T18:36:32;98490.78;;;31.70;nan
19259;BME280;9763;48.780;9.212;2022-07-23T18:39:56;98495.22;;;31.65;nan
19259;BME280;9763;48.780;9.212;2022-07-23T18:43:20;98502.13;;;31.61;nan
19259;BME280;9763;48.780;9.212;2022-07-23T18:46:44;98505.63;;;31.61;nan
19259;BME280;9763;48.780;9.212;2022-07-23T18:50:11;98513.13;;;31.59;nan
19259;BME280;9763;48.780;9.212;2022-07-23T18:53:36;98518.53;;;31.59;nan
19259;BME280;9763;48.780;9.212;2022-07-23T18:57:00;98519.59;;;31.58;nan
19259;BME280;9763;48.780;9.212;2022-07-23T19:00:25;98522.28;;;31.58;nan